Time;durP1;ratioP1;P1;durP2;ratioP2;P2;SDS_P1;SDS_P2;PMS_P1;PMS_P2;Temp;Humidity;BMP_temperature;BMP_pressure;BME280_temperature;BME280_humidity;BME280_pressure;Samples;Min_cycle;Max_cycle;Signal;HPM_P1;HPM_P2
2022/11/05 00:10:54;;;;;;;40.30;18.17;;;15.00;80.40;;;;;;6122866;23;20162;-79
2022/11/05 00:19:06;;;;;;;39.80;18.60;;;14.80;81.10;;;;;;6120266;23;20630;-78
2022/11/05 00:27:09;;;;;;;35.10;17.77;;;14.70;80.80;;;;;;6123187;23;20607;-78
2022/11/05 00:29:37;;;;;;;38.67;18.90;;;14.60;80.60;;;;;;6118705;23;20169;-78
2022/11/05 00:32:05;;;;;;;36.50;17.77;;;14.60;80.80;;;;;;6120745;23;20177;-79
2022/11/05 00:34:34;;;;;;;33.83;16.50;;;14.60;81.00;;;;;;6121525;23;20627;-78
2022/11/05 00:37:02;;;;;;;33.93;16.03;;;14.60;80.90;;;;;;6124012;23;20180;-78
2022/11/05 00:39:30;;;;;;;35.57;17.37;;;14.60;80.90;;;;;;6119795;23;20386;-79
2022/11/05 00:45:03;;;;;;;33.57;16.53;;;14.50;81.30;;;;;;6122983;23;20168;-78
2022/11/05 00:50:20;;;;;;;33.17;16.80;;;14.40;82.40;;;;;;6119705;23;20169;-78
2022/11/05 00:52:58;;;;;;;36.23;17.33;;;14.40;82.60;;;;;;6120844;23;20177;-78
2022/11/05 00:55:32;;;;;;;34.33;16.47;;;14.40;82.90;;;;;;6123811;23;20173;-79
2022/11/05 00:58:01;;;;;;;40.00;17.90;;;14.30;83.00;;;;;;6123162;23;21096;-79
2022/11/05 01:00:32;;;;;;;34.70;17.17;;;14.30;83.50;;;;;;6120820;23;20173;-79
2022/11/05 01:03:06;;;;;;;36.67;16.53;;;14.30;84.10;;;;;;6122067;23;20193;-78
2022/11/05 01:05:38;;;;;;;34.70;17.77;;;14.30;84.70;;;;;;6121630;23;20240;-78
2022/11/05 01:08:07;;;;;;;31.37;16.43;;;14.30;84.50;;;;;;6120812;23;20232;-78
2022/11/05 01:10:40;;;;;;;32.03;15.83;;;14.20;85.40;;;;;;6122090;23;20192;-79
2022/11/05 01:13:09;;;;;;;33.40;16.07;;;14.20;85.70;;;;;;6122440;23;20162;-78
2022/11/05 01:15:42;;;;;;;30.77;17.23;;;14.20;85.90;;;;;;6120838;23;20165;-79
2022/11/05 01:18:10;;;;;;;35.03;16.90;;;14.30;85.80;;;;;;6122771;23;20619;-77
2022/11/05 01:20:39;;;;;;;32.97;15.50;;;14.20;86.20;;;;;;6122218;23;20201;-78
2022/11/05 01:23:07;;;;;;;36.47;16.17;;;14.20;86.40;;;;;;6122308;23;20236;-78
2022/11/05 01:25:40;;;;;;;34.37;16.07;;;14.20;86.00;;;;;;6122149;23;20220;-79
2022/11/05 01:28:09;;;;;;;31.47;15.53;;;14.20;86.00;;;;;;6121259;23;20741;-79
2022/11/05 01:30:38;;;;;;;32.40;15.53;;;14.20;86.60;;;;;;6121196;23;20173;-78
2022/11/05 01:33:08;;;;;;;31.73;16.70;;;14.20;86.60;;;;;;6122988;23;20508;-78
2022/11/05 01:35:38;;;;;;;32.63;16.23;;;14.20;86.30;;;;;;6122167;23;20183;-78
2022/11/05 01:38:07;;;;;;;28.87;16.10;;;14.20;86.60;;;;;;6121705;23;20177;-78
2022/11/05 01:40:35;;;;;;;29.83;14.80;;;14.20;87.50;;;;;;6118909;23;20268;-79
2022/11/05 01:43:05;;;;;;;33.77;15.60;;;14.20;87.30;;;;;;6120121;23;20257;-78
2022/11/05 01:45:34;;;;;;;33.13;16.27;;;14.30;87.20;;;;;;6122228;23;20177;-79
2022/11/05 01:48:13;;;;;;;30.50;14.23;;;14.30;87.10;;;;;;6124641;23;20173;-79
2022/11/05 01:50:46;;;;;;;30.43;15.07;;;14.20;87.70;;;;;;6120369;23;20200;-78
2022/11/05 01:53:21;;;;;;;30.20;13.97;;;14.30;87.90;;;;;;6119911;23;20240;-78
2022/11/05 01:55:57;;;;;;;31.70;15.13;;;14.20;87.60;;;;;;6121838;23;20161;-77
2022/11/05 01:58:29;;;;;;;31.07;14.20;;;14.20;88.40;;;;;;6121081;23;20223;-77
2022/11/05 02:00:58;;;;;;;26.13;13.57;;;14.30;88.30;;;;;;6120280;23;20248;-77
2022/11/05 02:03:29;;;;;;;29.80;14.03;;;14.20;88.60;;;;;;6121438;23;20256;-77
2022/11/05 02:06:00;;;;;;;29.10;13.60;;;14.20;88.70;;;;;;6121275;23;20231;-77
2022/11/05 02:08:51;;;;;;;31.33;13.93;;;14.30;88.90;;;;;;6123074;23;20161;-78
2022/11/05 02:11:20;;;;;;;27.37;13.10;;;14.30;89.20;;;;;;6121955;23;20491;-78
2022/11/05 02:13:50;;;;;;;29.63;13.13;;;14.30;89.20;;;;;;6118906;23;20225;-78
2022/11/05 02:16:34;;;;;;;26.63;13.47;;;14.30;90.10;;;;;;6122091;23;20481;-79
2022/11/05 02:19:22;;;;;;;27.00;12.73;;;14.30;90.10;;;;;;6121214;23;20161;-77
2022/11/05 02:22:19;;;;;;;22.20;12.33;;;14.30;89.80;;;;;;6122383;23;20169;-77
2022/11/05 02:25:19;;;;;;;28.23;12.97;;;14.30;90.00;;;;;;6056328;23;20280;-78
2022/11/05 02:28:13;;;;;;;31.23;13.47;;;14.30;90.10;;;;;;6122284;23;20205;-77
2022/11/05 02:30:49;;;;;;;28.53;11.97;;;14.30;90.00;;;;;;6119424;23;20165;-78
2022/11/05 02:33:29;;;;;;;27.47;13.20;;;14.30;89.80;;;;;;6122551;23;20165;-77
2022/11/05 02:36:23;;;;;;;26.53;12.97;;;14.40;90.00;;;;;;6122072;23;20176;-77
2022/11/05 02:39:06;;;;;;;29.10;14.65;;;14.40;90.00;;;;;;6116753;23;20392;-77
2022/11/05 02:41:42;;;;;;;25.67;13.73;;;14.40;90.00;;;;;;6120900;23;20173;-78
2022/11/05 02:44:22;;;;;;;27.43;12.07;;;14.40;90.00;;;;;;6120090;23;20515;-77
2022/11/05 02:46:58;;;;;;;23.17;12.07;;;14.40;90.00;;;;;;6119877;23;20161;-78
2022/11/05 02:49:39;;;;;;;23.00;11.77;;;14.40;90.10;;;;;;6121914;23;20165;-78
2022/11/05 02:52:15;;;;;;;26.00;11.83;;;14.40;90.70;;;;;;6119706;23;20161;-77
2022/11/05 02:54:47;;;;;;;25.43;12.50;;;14.40;90.40;;;;;;6119514;23;20169;-77
2022/11/05 02:57:15;;;;;;;24.20;12.27;;;14.40;90.60;;;;;;6121701;23;20197;-77
2022/11/05 02:59:43;;;;;;;22.37;11.73;;;14.40;90.60;;;;;;6119747;23;20280;-77
2022/11/05 03:02:13;;;;;;;26.03;12.53;;;14.40;90.40;;;;;;6121271;23;20177;-77
2022/11/05 03:04:42;;;;;;;26.33;11.80;;;14.40;90.60;;;;;;6121125;23;20228;-78
2022/11/05 03:07:25;;;;;;;24.97;12.47;;;14.40;90.70;;;;;;6122170;23;20174;-78
2022/11/05 03:10:09;;;;;;;25.93;11.80;;;14.40;90.70;;;;;;6122702;23;20164;-77
2022/11/05 03:12:47;;;;;;;23.40;11.17;;;14.40;90.80;;;;;;6122822;23;20619;-78
2022/11/05 03:15:26;;;;;;;24.70;11.77;;;14.40;90.70;;;;;;6120835;23;20169;-78
2022/11/05 03:18:04;;;;;;;26.53;10.93;;;14.50;90.60;;;;;;6119547;23;20172;-78
2022/11/05 03:20:37;;;;;;;22.27;11.80;;;14.50;90.70;;;;;;6123028;23;20169;-77
2022/11/05 03:23:12;;;;;;;23.90;11.07;;;14.50;90.70;;;;;;6124350;23;20166;-78
2022/11/05 03:25:46;;;;;;;23.43;10.93;;;14.50;90.60;;;;;;6122701;23;20577;-77
2022/11/05 03:28:17;;;;;;;21.40;10.37;;;14.50;90.60;;;;;;6124251;23;20197;-77
2022/11/05 03:30:45;;;;;;;24.23;10.80;;;14.60;91.00;;;;;;6122543;23;20166;-77
2022/11/05 03:33:20;;;;;;;23.17;12.13;;;14.60;90.80;;;;;;6122366;23;20243;-77
2022/11/05 03:35:53;;;;;;;21.87;11.50;;;14.60;91.00;;;;;;6121639;23;20502;-77
2022/11/05 03:38:26;;;;;;;22.10;10.90;;;14.60;90.90;;;;;;6124108;23;20684;-76
2022/11/05 03:40:58;;;;;;;29.93;12.77;;;14.60;90.90;;;;;;6122192;23;20658;-79
2022/11/05 03:43:30;;;;;;;23.93;12.17;;;14.60;91.20;;;;;;6122705;23;20180;-78
2022/11/05 03:46:02;;;;;;;24.30;11.03;;;14.60;91.10;;;;;;6122245;23;20483;-79
2022/11/05 03:48:38;;;;;;;23.67;11.47;;;14.50;91.50;;;;;;6122749;23;20611;-79
2022/11/05 03:51:11;;;;;;;19.03;10.57;;;14.50;91.60;;;;;;6123329;23;20643;-79
2022/11/05 03:53:47;;;;;;;21.80;11.03;;;14.50;91.60;;;;;;6121467;23;20275;-77
2022/11/05 03:56:20;;;;;;;26.50;11.53;;;14.50;91.50;;;;;;6123773;23;20485;-79
2022/11/05 03:58:49;;;;;;;19.48;10.90;;;14.50;91.90;;;;;;6123288;23;20353;-80
2022/11/05 04:01:25;;;;;;;19.00;10.03;;;14.50;91.70;;;;;;6119391;23;20698;-79
2022/11/05 04:03:55;;;;;;;18.43;10.23;;;14.50;91.60;;;;;;6120858;23;20204;-79
2022/11/05 04:14:41;;;;;;;22.50;9.83;;;14.50;91.90;;;;;;6121718;23;20162;-80
2022/11/05 04:17:08;;;;;;;22.40;11.23;;;14.50;91.90;;;;;;6122162;23;20216;-79
2022/11/05 04:25:13;;;;;;;21.57;11.53;;;14.50;91.70;;;;;;6123668;23;20559;-78
2022/11/05 04:27:41;;;;;;;23.50;11.47;;;14.50;91.70;;;;;;6121458;23;20197;-78
2022/11/05 04:30:18;;;;;;;23.53;11.47;;;14.50;91.60;;;;;;6121267;23;20224;-79
2022/11/05 04:33:01;;;;;;;23.23;11.37;;;14.60;91.60;;;;;;6120530;23;20686;-79
2022/11/05 04:35:34;;;;;;;22.93;11.47;;;14.50;92.00;;;;;;6122077;23;20505;-78
2022/11/05 04:38:04;;;;;;;24.60;11.20;;;14.50;91.80;;;;;;6124090;23;20161;-79
2022/11/05 04:40:32;;;;;;;20.47;10.63;;;14.60;91.70;;;;;;6121982;23;20177;-79
2022/11/05 04:43:01;;;;;;;19.03;10.53;;;14.60;91.90;;;;;;6120429;23;20638;-80
2022/11/05 04:45:31;;;;;;;25.33;11.17;;;14.60;91.90;;;;;;6121320;23;20205;-78
2022/11/05 04:48:00;;;;;;;26.83;11.30;;;14.50;92.20;;;;;;6123602;23;20161;-79
2022/11/05 04:50:28;;;;;;;26.00;10.60;;;14.50;92.30;;;;;;6118747;23;20173;-79
2022/11/05 04:52:59;;;;;;;23.83;10.30;;;14.50;92.30;;;;;;6120709;23;20176;-79
2022/11/05 04:55:27;;;;;;;22.77;10.90;;;14.50;92.20;;;;;;6123816;23;20207;-78
2022/11/05 04:57:55;;;;;;;22.00;10.83;;;14.50;92.20;;;;;;6121046;23;20358;-79
2022/11/05 05:00:24;;;;;;;18.50;10.60;;;14.50;92.10;;;;;;6120364;23;20169;-79
2022/11/05 05:02:52;;;;;;;25.07;11.00;;;14.60;92.20;;;;;;6121641;23;20221;-77
2022/11/05 05:05:21;;;;;;;23.83;11.00;;;14.60;92.20;;;;;;6122294;23;20251;-79
2022/11/05 05:07:50;;;;;;;22.73;11.07;;;14.60;92.30;;;;;;6122830;23;20176;-78
2022/11/05 05:10:19;;;;;;;20.93;9.97;;;14.50;92.30;;;;;;6119397;23;20197;-79
2022/11/05 05:12:48;;;;;;;24.67;11.40;;;14.60;92.40;;;;;;6125088;23;20173;-78
2022/11/05 05:15:16;;;;;;;20.73;9.83;;;14.50;92.40;;;;;;6122750;23;20459;-79
2022/11/05 05:17:44;;;;;;;20.90;10.80;;;14.50;92.30;;;;;;6122286;23;20615;-79
2022/11/05 05:22:58;;;;;;;22.37;11.10;;;14.60;92.30;;;;;;6123232;23;20610;-78
2022/11/05 05:25:28;;;;;;;18.80;10.33;;;14.50;92.40;;;;;;6123096;23;20200;-78
2022/11/05 05:27:57;;;;;;;22.57;10.47;;;14.50;92.60;;;;;;6122057;23;20197;-78
2022/11/05 05:30:25;;;;;;;21.20;10.70;;;14.50;92.60;;;;;;6120365;23;20181;-78
2022/11/05 05:32:54;;;;;;;22.63;12.17;;;14.50;92.70;;;;;;6121399;23;20236;-78
2022/11/05 05:35:22;;;;;;;24.73;10.43;;;14.50;92.60;;;;;;6120139;23;20224;-77
2022/11/05 05:37:55;;;;;;;25.73;10.87;;;14.60;92.70;;;;;;6120909;23;20177;-77
2022/11/05 05:40:24;;;;;;;24.07;12.13;;;14.60;92.70;;;;;;6120746;23;20165;-78
2022/11/05 05:42:55;;;;;;;21.67;10.40;;;14.60;92.80;;;;;;6121592;23;20180;-77
2022/11/05 05:45:24;;;;;;;24.60;11.63;;;14.50;93.00;;;;;;6121088;23;20283;-78
2022/11/05 05:47:54;;;;;;;21.73;11.27;;;14.50;93.20;;;;;;6123501;23;20177;-76
2022/11/05 05:50:22;;;;;;;23.90;10.73;;;14.50;93.30;;;;;;6121852;23;20452;-79
2022/11/05 05:52:51;;;;;;;20.90;11.33;;;14.50;93.20;;;;;;6123643;23;20503;-79
2022/11/05 05:55:19;;;;;;;21.93;10.90;;;14.60;93.20;;;;;;6124152;23;20208;-78
2022/11/05 05:57:47;;;;;;;23.57;11.53;;;14.60;93.00;;;;;;6123505;23;20192;-78
2022/11/05 06:00:17;;;;;;;29.93;13.37;;;14.60;93.00;;;;;;6121046;23;20173;-78
2022/11/05 06:02:46;;;;;;;30.57;13.20;;;14.60;93.30;;;;;;6122331;23;20162;-78
2022/11/05 06:05:14;;;;;;;28.47;13.07;;;14.60;93.70;;;;;;6121546;23;20536;-78
2022/11/05 06:07:43;;;;;;;25.07;11.87;;;14.60;94.10;;;;;;6124937;23;20229;-78
2022/11/05 06:10:11;;;;;;;33.00;13.50;;;14.60;94.00;;;;;;6122638;23;20634;-77
2022/11/05 06:12:39;;;;;;;32.40;12.47;;;14.60;94.10;;;;;;6123889;23;20169;-77
2022/11/05 06:15:08;;;;;;;28.80;14.13;;;14.70;94.10;;;;;;6121779;23;20177;-79
2022/11/05 06:17:38;;;;;;;31.87;14.17;;;14.70;94.20;;;;;;6121695;23;20510;-79
2022/11/05 06:20:08;;;;;;;34.20;14.17;;;14.70;94.60;;;;;;6123562;23;20173;-78
2022/11/05 06:22:36;;;;;;;30.60;13.77;;;14.70;94.80;;;;;;6125115;23;20232;-77
2022/11/05 06:25:06;;;;;;;29.00;12.63;;;14.70;94.90;;;;;;6122982;23;20654;-79
2022/11/05 06:27:36;;;;;;;29.77;13.07;;;14.70;95.00;;;;;;6122817;23;20565;-77
2022/11/05 06:30:04;;;;;;;33.50;13.57;;;14.80;95.00;;;;;;6125704;23;20267;-77
2022/11/05 06:32:33;;;;;;;31.50;15.47;;;14.80;94.90;;;;;;6125078;23;20513;-78
2022/11/05 06:35:02;;;;;;;33.27;14.50;;;14.80;95.30;;;;;;6123512;23;20548;-78
2022/11/05 06:37:32;;;;;;;35.07;14.13;;;14.80;95.10;;;;;;6123334;23;20177;-79
2022/11/05 06:40:00;;;;;;;35.73;15.47;;;14.90;95.20;;;;;;6123075;23;20220;-78
2022/11/05 06:42:28;;;;;;;34.37;15.83;;;14.90;95.20;;;;;;6124445;23;20653;-78
2022/11/05 06:44:57;;;;;;;30.07;14.37;;;14.90;95.60;;;;;;6124069;23;20232;-78
2022/11/05 06:47:25;;;;;;;29.37;13.40;;;14.90;95.50;;;;;;6122351;23;20643;-77
2022/11/05 06:49:55;;;;;;;32.83;15.13;;;14.90;95.90;;;;;;6123097;23;20224;-76
2022/11/05 06:52:26;;;;;;;33.93;14.43;;;14.90;96.00;;;;;;6124187;23;20471;-79
2022/11/05 06:54:54;;;;;;;37.20;15.03;;;15.00;96.20;;;;;;6122691;23;20189;-77
2022/11/05 06:57:22;;;;;;;34.10;15.60;;;15.00;95.90;;;;;;6125429;23;20639;-78
2022/11/05 06:59:50;;;;;;;39.97;15.90;;;15.10;95.90;;;;;;6126670;23;20558;-77
2022/11/05 07:02:25;;;;;;;35.33;14.73;;;15.10;95.90;;;;;;6122647;23;20248;-77
2022/11/05 07:04:54;;;;;;;31.47;14.97;;;15.10;95.90;;;;;;6126514;23;20177;-78
2022/11/05 07:07:23;;;;;;;30.80;13.80;;;15.20;95.90;;;;;;6127714;23;20504;-79
2022/11/05 07:09:52;;;;;;;30.67;14.30;;;15.20;95.90;;;;;;6125882;23;20173;-77
2022/11/05 07:12:20;;;;;;;32.43;14.87;;;15.30;95.90;;;;;;6124428;23;20506;-77
2022/11/05 07:14:49;;;;;;;35.57;15.97;;;15.30;95.90;;;;;;6124376;23;20232;-79
2022/11/05 07:17:17;;;;;;;32.77;14.13;;;15.30;96.10;;;;;;6124168;23;20661;-78
2022/11/05 07:19:46;;;;;;;34.40;15.20;;;15.30;96.10;;;;;;6124704;23;20216;-79
2022/11/05 07:22:14;;;;;;;35.03;15.60;;;15.30;96.20;;;;;;6121470;23;20228;-78
2022/11/05 07:24:46;;;;;;;33.97;14.50;;;15.30;96.20;;;;;;6120664;23;20173;-81
2022/11/05 07:27:14;;;;;;;36.40;14.10;;;15.40;96.30;;;;;;6125130;23;20185;-78
2022/11/05 07:29:42;;;;;;;31.33;14.27;;;15.40;96.30;;;;;;6122335;23;20607;-78
2022/11/05 07:32:11;;;;;;;31.87;14.90;;;15.40;96.20;;;;;;6122799;23;20173;-81
2022/11/05 07:34:39;;;;;;;31.70;15.97;;;15.50;96.30;;;;;;6124093;23;20184;-77
2022/11/05 07:37:07;;;;;;;41.07;15.50;;;15.40;96.50;;;;;;6125198;23;20487;-77
2022/11/05 07:39:35;;;;;;;32.87;15.33;;;15.40;96.70;;;;;;6124608;23;20505;-78
2022/11/05 07:42:05;;;;;;;35.43;15.40;;;15.50;96.80;;;;;;6125886;23;20173;-79
2022/11/05 07:44:33;;;;;;;41.97;16.87;;;15.50;96.80;;;;;;6125145;23;20172;-78
2022/11/05 07:47:02;;;;;;;36.23;15.20;;;15.50;97.00;;;;;;6125986;23;20208;-77
2022/11/05 07:49:30;;;;;;;34.77;15.53;;;15.50;96.90;;;;;;6125357;23;20177;-77
2022/11/05 07:51:58;;;;;;;36.33;15.90;;;15.60;96.80;;;;;;6125591;23;20220;-76
2022/11/05 07:54:26;;;;;;;36.57;15.70;;;15.60;96.90;;;;;;6126304;23;20173;-78
2022/11/05 07:56:55;;;;;;;37.33;14.90;;;15.70;97.00;;;;;;6124570;23;20200;-80
2022/11/05 07:59:24;;;;;;;32.97;15.77;;;15.70;96.90;;;;;;6125348;23;20173;-78
2022/11/05 08:01:53;;;;;;;32.37;14.37;;;15.80;96.90;;;;;;6124214;23;20173;-77
2022/11/05 08:04:21;;;;;;;37.13;15.87;;;15.90;96.80;;;;;;6126345;23;20180;-76
2022/11/05 08:06:49;;;;;;;32.70;16.23;;;15.90;96.70;;;;;;6125352;23;20197;-77
2022/11/05 08:09:18;;;;;;;45.63;17.63;;;16.00;96.70;;;;;;6125354;23;20173;-76
2022/11/05 08:11:46;;;;;;;40.30;17.50;;;16.10;96.70;;;;;;6124726;23;20232;-76
2022/11/05 08:14:14;;;;;;;41.50;17.93;;;16.10;96.70;;;;;;6126580;23;20170;-77
2022/11/05 08:16:44;;;;;;;40.63;16.63;;;16.10;96.70;;;;;;6125176;23;20184;-76
2022/11/05 08:19:12;;;;;;;36.00;16.53;;;16.20;96.60;;;;;;6125609;23;20618;-77
2022/11/05 08:21:40;;;;;;;45.53;18.67;;;16.30;96.50;;;;;;6124395;23;20177;-79
2022/11/05 08:24:09;;;;;;;38.73;16.77;;;16.30;96.40;;;;;;6125130;23;20173;-79
2022/11/05 08:26:37;;;;;;;38.10;17.83;;;16.50;96.30;;;;;;6126061;23;20197;-76
2022/11/05 08:29:05;;;;;;;40.80;18.27;;;16.60;96.20;;;;;;6125618;23;20193;-76
2022/11/05 08:31:35;;;;;;;33.67;16.63;;;16.60;96.00;;;;;;6124984;23;20177;-82
2022/11/05 08:34:05;;;;;;;38.07;17.20;;;16.70;95.80;;;;;;6126208;23;20177;-77
2022/11/05 08:36:35;;;;;;;38.97;16.40;;;16.80;95.70;;;;;;6126050;23;20173;-78
2022/11/05 08:39:03;;;;;;;33.53;17.07;;;16.90;95.50;;;;;;6125354;23;20554;-76
2022/11/05 08:41:32;;;;;;;39.50;16.97;;;17.00;95.30;;;;;;6124644;23;20181;-79
2022/11/05 08:44:00;;;;;;;35.73;16.63;;;17.10;95.20;;;;;;6125623;23;20228;-78
2022/11/05 08:46:28;;;;;;;39.93;17.00;;;17.10;95.00;;;;;;6124891;23;20228;-77
2022/11/05 08:48:57;;;;;;;41.00;16.97;;;17.20;94.90;;;;;;6125570;23;20224;-77
2022/11/05 08:51:27;;;;;;;37.07;18.10;;;17.20;94.70;;;;;;6124555;23;20169;-80
2022/11/05 08:53:55;;;;;;;41.37;18.10;;;17.20;94.60;;;;;;6124472;23;20697;-76
2022/11/05 08:56:23;;;;;;;37.10;16.73;;;17.20;94.40;;;;;;6125843;23;20177;-78
2022/11/05 08:58:52;;;;;;;44.33;17.63;;;17.30;94.80;;;;;;6124667;23;20177;-79
2022/11/05 09:01:20;;;;;;;41.10;15.87;;;17.30;94.40;;;;;;6124318;23;20248;-78
2022/11/05 09:03:51;;;;;;;38.67;17.57;;;17.30;94.40;;;;;;6124343;23;20184;-77
2022/11/05 09:06:20;;;;;;;42.50;18.70;;;17.40;94.40;;;;;;6124467;23;20193;-78
2022/11/05 09:08:49;;;;;;;38.20;16.53;;;17.40;94.30;;;;;;6124637;23;20169;-78
2022/11/05 09:11:18;;;;;;;41.53;16.93;;;17.40;94.30;;;;;;6124874;23;20177;-77
2022/11/05 09:13:46;;;;;;;35.93;16.33;;;17.50;94.30;;;;;;6122117;23;20548;-78
2022/11/05 09:16:19;;;;;;;39.20;16.77;;;17.60;94.30;;;;;;6125040;23;20248;-78
2022/11/05 09:18:48;;;;;;;37.43;16.40;;;17.70;94.00;;;;;;6125179;23;20161;-79
2022/11/05 09:21:17;;;;;;;38.93;17.40;;;17.70;93.90;;;;;;6124465;23;20177;-78
2022/11/05 09:23:46;;;;;;;40.13;16.87;;;17.80;93.70;;;;;;6124363;23;20174;-79
2022/11/05 09:26:15;;;;;;;39.60;16.27;;;17.80;93.60;;;;;;6125287;23;20666;-78
2022/11/05 09:28:44;;;;;;;34.50;17.03;;;17.90;93.60;;;;;;6123666;23;20201;-78
2022/11/05 09:31:12;;;;;;;38.67;17.43;;;17.90;93.80;;;;;;6125013;23;20232;-77
2022/11/05 09:33:41;;;;;;;39.50;17.00;;;18.00;93.30;;;;;;6122429;23;20610;-79
2022/11/05 09:36:10;;;;;;;37.07;17.87;;;18.00;93.00;;;;;;6124370;23;20308;-80
2022/11/05 09:38:38;;;;;;;30.33;16.50;;;18.00;93.00;;;;;;6125067;23;20174;-77
2022/11/05 09:41:11;;;;;;;38.23;17.20;;;18.10;93.00;;;;;;6125582;23;20173;-79
2022/11/05 09:43:45;;;;;;;36.13;16.67;;;18.10;92.90;;;;;;6123420;23;20209;-77
2022/11/05 09:46:18;;;;;;;33.53;16.10;;;18.20;92.80;;;;;;6124307;23;20166;-78
2022/11/05 09:48:49;;;;;;;35.37;17.67;;;18.20;92.80;;;;;;6123340;23;20161;-79
2022/11/05 09:51:19;;;;;;;40.50;16.47;;;18.20;92.60;;;;;;6124275;23;20158;-79
2022/11/05 09:53:52;;;;;;;34.60;17.17;;;18.30;92.50;;;;;;6123260;23;20161;-78
2022/11/05 09:56:24;;;;;;;35.17;16.60;;;18.30;92.40;;;;;;6125072;23;20175;-78
2022/11/05 09:58:58;;;;;;;41.77;18.37;;;18.40;92.70;;;;;;6125225;23;20603;-77
2022/11/05 10:01:32;;;;;;;41.93;17.27;;;18.50;92.30;;;;;;6124819;23;20220;-81
2022/11/05 10:04:06;;;;;;;37.77;17.03;;;18.50;92.20;;;;;;6123386;23;20157;-79
2022/11/05 10:06:36;;;;;;;39.13;16.17;;;18.50;92.10;;;;;;6124646;23;20161;-81
2022/11/05 10:09:10;;;;;;;38.27;17.23;;;18.60;92.00;;;;;;6124441;23;20224;-79
2022/11/05 10:11:44;;;;;;;36.57;15.00;;;18.60;92.20;;;;;;6124746;23;20162;-79
2022/11/05 10:14:19;;;;;;;35.40;17.07;;;18.70;91.70;;;;;;6125157;23;20225;-76
2022/11/05 10:16:52;;;;;;;40.37;17.43;;;18.70;91.60;;;;;;6123575;23;20168;-77
2022/11/05 10:19:23;;;;;;;35.33;16.37;;;18.70;91.30;;;;;;6125155;23;20161;-79
2022/11/05 10:21:55;;;;;;;39.53;17.17;;;18.80;91.40;;;;;;6123659;23;20497;-79
2022/11/05 10:24:43;;;;;;;37.90;15.80;;;18.80;91.20;;;;;;6123571;23;20622;-79
2022/11/05 10:27:16;;;;;;;38.50;15.30;;;18.80;91.30;;;;;;6124368;23;20240;-79
2022/11/05 10:29:46;;;;;;;30.70;15.40;;;18.80;91.20;;;;;;6124854;23;20158;-79
2022/11/05 10:32:23;;;;;;;34.10;15.17;;;18.90;91.20;;;;;;6121360;23;20236;-77
2022/11/05 10:34:53;;;;;;;36.53;16.10;;;18.90;91.20;;;;;;6124066;23;20161;-78
2022/11/05 10:37:24;;;;;;;37.27;16.57;;;18.90;91.10;;;;;;6124006;23;20161;-77
2022/11/05 10:39:52;;;;;;;34.47;15.23;;;19.00;91.10;;;;;;6124698;23;20598;-79
2022/11/05 10:42:39;;;;;;;31.23;14.60;;;19.10;90.90;;;;;;6124419;23;20174;-76
2022/11/05 10:45:22;;;;;;;36.07;15.27;;;19.10;90.80;;;;;;6123965;23;20180;-79
2022/11/05 10:48:05;;;;;;;39.50;18.63;;;19.10;90.80;;;;;;6121768;23;20185;-77
2022/11/05 10:50:34;;;;;;;64.67;27.03;;;19.20;90.80;;;;;;6124694;23;20168;-81
2022/11/05 10:53:07;;;;;;;38.97;17.73;;;19.30;90.90;;;;;;6124463;23;20180;-77
2022/11/05 10:55:38;;;;;;;39.30;18.23;;;19.40;90.80;;;;;;6124918;23;20164;-77
2022/11/05 10:58:18;;;;;;;36.07;16.93;;;19.50;90.70;;;;;;6122195;23;20193;-77
2022/11/05 11:01:02;;;;;;;24.83;14.40;;;19.50;90.70;;;;;;6124455;23;20537;-76
2022/11/05 11:03:35;;;;;;;30.73;15.53;;;19.60;90.60;;;;;;6123990;23;20240;-77
2022/11/05 11:06:06;;;;;;;29.60;14.43;;;19.70;90.50;;;;;;6124912;23;20161;-79
2022/11/05 11:08:36;;;;;;;39.28;19.00;;;19.70;90.30;;;;;;6124157;23;20197;-77
2022/11/05 11:11:07;;;;;;;39.67;18.73;;;19.80;90.30;;;;;;6124510;23;20615;-76
2022/11/05 11:13:51;;;;;;;36.58;17.60;;;19.90;90.20;;;;;;6124235;23;20221;-78
2022/11/05 11:16:23;;;;;;;32.72;14.45;;;20.00;90.20;;;;;;6121441;23;20691;-77
2022/11/05 11:18:54;;;;;;;28.10;15.32;;;20.10;90.00;;;;;;6123890;23;20232;-78
2022/11/05 11:21:23;;;;;;;31.25;15.55;;;20.10;89.70;;;;;;6123915;23;20217;-78
2022/11/05 11:23:56;;;;;;;31.83;15.25;;;20.20;89.90;;;;;;6123888;23;20513;-80
2022/11/05 11:26:26;;;;;;;33.10;17.38;;;20.20;89.70;;;;;;6123203;23;20263;-78
2022/11/05 11:28:58;;;;;;;31.48;16.15;;;20.30;89.30;;;;;;6122311;23;20311;-78
2022/11/05 11:31:31;;;;;;;30.90;15.20;;;20.40;89.40;;;;;;6123283;23;20161;-78
2022/11/05 11:34:03;;;;;;;27.85;16.30;;;20.40;89.20;;;;;;6124855;23;20166;-77
2022/11/05 11:36:38;;;;;;;31.63;15.20;;;20.50;88.90;;;;;;6124310;23;20161;-75
2022/11/05 11:39:11;;;;;;;28.70;15.35;;;20.60;89.00;;;;;;6123500;23;20161;-79
2022/11/05 11:41:42;;;;;;;26.63;15.18;;;20.60;88.60;;;;;;6121711;23;20162;-80
2022/11/05 11:44:25;;;;;;;25.35;15.07;;;20.60;88.50;;;;;;6126725;23;20161;-79
2022/11/05 11:46:59;;;;;;;31.17;14.82;;;20.70;88.60;;;;;;6125074;23;20184;-77
2022/11/05 11:49:39;;;;;;;26.85;15.35;;;20.80;88.50;;;;;;6124144;23;20409;-80
2022/11/05 11:52:15;;;;;;;26.88;13.75;;;20.90;88.60;;;;;;6119732;23;20165;-78
2022/11/05 11:54:43;;;;;;;26.73;13.55;;;21.00;88.50;;;;;;6121863;23;20161;-77
2022/11/05 11:57:22;;;;;;;30.17;14.00;;;21.10;88.20;;;;;;6125382;23;20256;-77
2022/11/05 11:59:59;;;;;;;27.42;13.75;;;21.20;88.00;;;;;;6123638;23;20165;-77
2022/11/05 12:03:10;;;;;;;25.02;13.80;;;21.30;87.40;;;;;;6123891;23;20157;-82
2022/11/05 12:05:47;;;;;;;27.58;14.23;;;21.40;87.20;;;;;;6122769;23;20208;-76
2022/11/05 12:08:40;;;;;;;26.63;15.05;;;21.50;87.00;;;;;;6120300;23;21422;-79
2022/11/05 12:11:20;;;;;;;27.08;13.98;;;21.60;86.60;;;;;;6125950;23;20549;-78
2022/11/05 12:14:03;;;;;;;22.23;12.63;;;21.60;85.60;;;;;;6125186;23;20161;-79
2022/11/05 12:16:45;;;;;;;30.25;14.90;;;21.60;85.40;;;;;;6125854;23;20169;-77
2022/11/05 12:19:27;;;;;;;23.65;12.98;;;21.70;85.40;;;;;;6120193;23;20169;-76
2022/11/05 12:22:04;;;;;;;29.05;13.82;;;21.70;84.50;;;;;;6124327;23;20157;-80
2022/11/05 12:25:11;;;;;;;28.50;13.73;;;21.70;84.10;;;;;;6123635;23;20161;-81
2022/11/05 12:27:55;;;;;;;21.92;12.57;;;21.80;83.30;;;;;;6100944;23;20193;-78
2022/11/05 12:30:23;;;;;;;21.02;11.77;;;21.80;83.20;;;;;;6124234;23;20197;-78
2022/11/05 12:33:09;;;;;;;23.17;13.18;;;21.80;82.20;;;;;;6124780;23;20627;-78
2022/11/05 12:35:56;;;;;;;26.70;12.93;;;21.90;81.80;;;;;;6126971;23;20158;-80
2022/11/05 12:38:52;;;;;;;23.67;12.40;;;21.90;81.80;;;;;;6124183;23;20236;-77
2022/11/05 12:41:26;;;;;;;20.27;12.27;;;21.90;81.70;;;;;;6123683;23;20639;-79
2022/11/05 12:44:11;;;;;;;22.45;12.50;;;22.00;81.20;;;;;;6125689;23;20164;-78
2022/11/05 12:46:46;;;;;;;24.67;12.02;;;22.00;81.20;;;;;;6121783;23;20220;-77
2022/11/05 12:49:39;;;;;;;22.75;12.98;;;22.10;81.20;;;;;;6124578;23;20189;-79
2022/11/05 12:52:24;;;;;;;26.83;12.52;;;22.10;81.10;;;;;;6121183;23;20177;-78
2022/11/05 12:55:02;;;;;;;22.42;12.07;;;22.20;81.10;;;;;;6126405;23;20281;-76
2022/11/05 12:57:34;;;;;;;24.10;12.85;;;22.20;81.20;;;;;;6124907;23;20161;-80
2022/11/05 13:00:07;;;;;;;27.88;13.18;;;22.30;81.00;;;;;;6126245;23;20185;-79
2022/11/05 13:02:41;;;;;;;20.92;11.65;;;22.30;81.10;;;;;;6125873;23;20161;-76
2022/11/05 13:05:16;;;;;;;23.63;11.90;;;22.30;81.20;;;;;;6125777;23;20161;-78
2022/11/05 13:07:52;;;;;;;23.35;11.93;;;22.30;81.20;;;;;;6125184;23;20200;-74
2022/11/05 13:10:28;;;;;;;20.08;11.38;;;22.30;81.10;;;;;;6126767;23;20216;-76
2022/11/05 13:13:02;;;;;;;19.92;10.05;;;22.30;81.30;;;;;;6125188;23;20192;-78
2022/11/05 13:15:34;;;;;;;23.45;11.55;;;22.30;81.20;;;;;;6125759;23;20217;-79
2022/11/05 13:18:06;;;;;;;19.38;11.05;;;22.30;80.70;;;;;;6123878;23;20165;-76
2022/11/05 13:20:38;;;;;;;23.63;11.75;;;22.30;80.80;;;;;;6122587;23;20388;-76
2022/11/05 13:23:17;;;;;;;24.65;10.30;;;22.20;81.10;;;;;;6123269;23;20165;-78
2022/11/05 13:25:50;;;;;;;18.42;10.60;;;22.20;81.30;;;;;;6124914;23;20220;-79
2022/11/05 13:28:35;;;;;;;21.55;9.98;;;22.10;81.50;;;;;;6125180;23;20259;-77
2022/11/05 13:31:06;;;;;;;32.13;11.15;;;21.90;81.80;;;;;;6124793;23;20189;-77
2022/11/05 13:33:38;;;;;;;25.08;11.40;;;21.80;82.10;;;;;;6123987;23;20627;-77
2022/11/05 13:39:08;;;;;;;30.35;11.35;;;21.70;82.70;;;;;;6124417;23;20535;-78
2022/11/05 13:41:58;;;;;;;21.48;11.68;;;21.50;83.10;;;;;;6124440;23;20161;-77